Stations météo

réclame
Mon MeteoGroup
Malmö, Suède (2635): Température de l'air & dewpoint: 09.12.2017 18:00:00 - 15.12.2017 18:00:00 (CET)Malmö, Suède (2635): Vitesse du vent & gusts: 09.12.2017 18:00:00 - 15.12.2017 18:00:00 (CET)Malmö, Suède (2635): Direction du vent: 09.12.2017 18:00:00 - 15.12.2017 18:00:00 (CET)Malmö, Suède (2635): visibility: 09.12.2017 18:00:00 - 15.12.2017 18:00:00 (CET)Malmö, Suède (2635): Quantités de précipitations: 09.12.2017 18:00:00 - 15.12.2017 18:00:00 (CET)
Date & Time tt [°C] td [°C] ff [km/h] ff [knt] fx [km/h] fx [knt] dd vv [km] rr [mm]
15.12.2017 18:00:00 3,1 1,4 6 3 13 7 W 33 0,0
15.12.2017 17:00:00 2,6 1,0 4 2 20 11 W 27 0,0
15.12.2017 16:00:00 2,7 0,9 9 5 26 14 W 37 0,0
15.12.2017 15:00:00 3,3 1,2 9 5 30 16 W 37 0,0
15.12.2017 14:00:00 4,1 1,1 11 6 30 16 W 40 0,0
15.12.2017 13:00:00 4,4 1,6 14 8 29 16 W 36 0,0
15.12.2017 12:00:00 4,4 1,5 13 7 29 16 W 33 0,0
15.12.2017 11:00:00 4,3 2,6 12 7 28 15 WSW 13 0,0
15.12.2017 10:00:00 4,3 2,4 13 7 23 13 WSW 15 0,0
15.12.2017 09:00:00 4,0 2,4 11 6 31 17 WSW 12 0,1
15.12.2017 08:00:00 3,8 2,4 11 6 32 17 WSW 10 0,0
15.12.2017 07:00:00 3,8 2,1 13 7 32 17 WSW 14 0,0
15.12.2017 06:00:00 3,6 1,4 15 8 36 19 WSW 20 0,0
15.12.2017 05:00:00 3,7 1,6 13 7 38 21 WSW 20 0,0
15.12.2017 04:00:00 3,9 1,5 16 9 38 21 WSW 22 0,0
15.12.2017 03:00:00 3,9 1,4 17 9 38 20 WSW 23 0,0
15.12.2017 02:00:00 3,7 1,6 17 9 38 20 WSW 22 0,0
15.12.2017 01:00:00 3,7 1,8 16 9 34 18 WSW 23 0,0
15.12.2017 00:00:00 3,5 1,6 16 9 34 18 WSW 21 0,0
14.12.2017 23:00:00 3,7 1,9 15 8 36 19 WSW 25 0,0
14.12.2017 22:00:00 3,6 2,0 17 9 36 19 WSW 27 0,0
14.12.2017 21:00:00 3,4 1,7 18 10 38 20 WSW 35 0,0
14.12.2017 20:00:00 3,4 1,6 16 9 39 21 WSW 44 0,1
14.12.2017 19:00:00 3,5 1,7 17 9 41 22 WSW 37 0,0
14.12.2017 18:00:00 3,2 1,3 18 10 41 22 WSW 42 0,0
14.12.2017 17:00:00 3,7 1,7 19 11 45 24 WSW 34 0,0
14.12.2017 16:00:00 4,3 2,2 21 12 49 26 WSW 26 0,0
14.12.2017 15:00:00 4,7 2,1 23 12 52 28 WSW 34 0,0
14.12.2017 14:00:00 5,0 2,2 23 12 54 29 WSW 37 0,0
14.12.2017 13:00:00 4,8 1,9 29 15 54 29 WSW 43 0,0
14.12.2017 12:00:00 4,4 2,3 25 13 50 27 WSW 46 0,0
14.12.2017 11:00:00 3,4 2,6 22 12 37 20 WSW 18 0,6
14.12.2017 10:00:00 1,9 1,4 8 5 19 10 W 6 0,9
14.12.2017 09:00:00 2,2 1,7 3 1 18 10 S 19 0,2
14.12.2017 08:00:00 1,4 1,0 5 3 27 14 ESE 10 0,5
14.12.2017 07:00:00 0,8 0,3 13 7 33 18 SE 10 1,7
14.12.2017 06:00:00 2,2 1,3 18 10 33 18 SSE 5 1,4
14.12.2017 05:00:00 3,1 1,7 13 7 28 15 SSE 39 0,0
14.12.2017 04:00:00 3,4 2,1 14 8 27 15 S 31 0,0
14.12.2017 03:00:00 3,2 2,4 13 7 28 15 S 12 0,0
14.12.2017 02:00:00 3,1 2,2 11 6 38 21 S 11 0,0
14.12.2017 01:00:00 2,9 2,0 13 7 38 21 S 25 0,5
14.12.2017 00:00:00 2,9 1,7 17 9 41 22 S 12 0,1
13.12.2017 23:00:00 2,8 1,8 21 11 41 22 S 11 0,7
13.12.2017 22:00:00 2,7 1,8 21 11 46 25 S 10 0,7
13.12.2017 21:00:00 2,8 1,7 21 12 46 25 S 11 1,3
13.12.2017 20:00:00 2,8 1,6 24 13 44 24 S 7 1,3
13.12.2017 19:00:00 2,6 1,5 22 12 44 24 S 6 1,1
13.12.2017 18:00:00 2,8 0,8 21 12 47 26 S 8 0,5
13.12.2017 17:00:00 3,1 0,6 22 12 47 26 S 19 0,0
13.12.2017 16:00:00 3,3 0,3 22 12 45 25 S 30 0,0
13.12.2017 15:00:00 - - - - - - - - -
13.12.2017 14:00:00 - - - - - - - - -
13.12.2017 13:00:00 3,1 0,2 20 11 45 25 S 25 0,0
13.12.2017 12:00:00 3,1 0,1 21 11 44 24 S 21 0,0
13.12.2017 11:00:00 3,2 0,0 17 9 40 22 SSW 27 0,0
13.12.2017 10:00:00 3,0 0,2 19 10 40 22 SSW 19 0,0
13.12.2017 09:00:00 2,4 0,1 11 6 41 22 SSW 14 0,0
13.12.2017 08:00:00 2,0 -0,9 17 9 42 23 SW 16 0,0
13.12.2017 07:00:00 2,4 -0,7 18 10 46 25 WSW 21 0,0
13.12.2017 06:00:00 2,6 -0,1 23 13 46 25 WSW 22 0,0
13.12.2017 05:00:00 3,1 0,8 18 10 42 23 SW 18 0,0
13.12.2017 04:00:00 3,3 1,6 18 10 42 23 WSW 14 0,0
13.12.2017 03:00:00 3,3 1,6 16 9 37 20 SW 16 0,0
13.12.2017 02:00:00 3,5 1,6 16 9 32 17 WSW 19 0,0
13.12.2017 01:00:00 3,4 1,5 12 7 25 14 SW 31 0,0
13.12.2017 00:00:00 2,9 0,6 11 6 32 17 WSW 44 0,0
12.12.2017 23:00:00 1,7 -0,4 11 6 33 18 WSW 41 0,0
12.12.2017 22:00:00 2,4 -0,5 19 10 33 18 W 44 0,0
12.12.2017 21:00:00 2,0 -1,6 14 7 32 18 W 45 0,0
12.12.2017 20:00:00 1,7 -1,9 17 9 42 23 W 41 0,0
12.12.2017 19:00:00 1,9 -0,5 21 11 42 23 WNW 32 0,0
12.12.2017 18:00:00 2,7 -1,1 18 10 44 24 WNW 40 0,0
12.12.2017 17:00:00 2,5 -0,7 17 9 47 25 WNW 49 0,0
12.12.2017 16:00:00 2,4 -1,9 18 10 47 25 NNW 49 0,0
12.12.2017 15:00:00 2,4 -0,4 16 9 45 24 NNW 47 0,0
12.12.2017 14:00:00 2,5 0,0 19 10 45 24 NNW 41 0,0
12.12.2017 13:00:00 2,1 0,3 15 8 37 20 NNW 50 0,0
12.12.2017 12:00:00 1,6 0,5 16 8 34 19 NW 50 0,0
12.12.2017 11:00:00 1,5 1,2 13 7 27 15 NNW 22 0,0
12.12.2017 10:00:00 1,4 1,1 10 5 19 10 NW 15 0,0
12.12.2017 09:00:00 1,3 1,1 8 4 15 8 NNW 11 0,0
12.12.2017 08:00:00 1,0 0,8 6 3 14 8 NNW 12 0,0
12.12.2017 07:00:00 0,9 0,7 4 2 14 8 N 5 0,6
12.12.2017 06:00:00 0,9 0,8 4 2 8 5 NNW 2,0 0,3
12.12.2017 05:00:00 0,9 0,7 3 1 7 4 NNW 4,4 0,0
12.12.2017 04:00:00 0,7 0,5 3 1 9 5 N 4,2 0,1
12.12.2017 03:00:00 0,5 0,4 0 0 9 5 N 3,4 0,6
12.12.2017 02:00:00 0,4 0,1 2 1 8 5 NNE 2,6 0,7
12.12.2017 01:00:00 0,3 0,0 5 3 10 6 NE 3,8 0,9
12.12.2017 00:00:00 0,2 0,0 5 3 10 6 ENE 1,6 0,9
11.12.2017 23:00:00 0,2 -0,1 3 1 7 4 NNE 1,1 1,3
11.12.2017 22:00:00 0,3 -0,1 0 0 19 11 N 1,2 1,4
11.12.2017 21:00:00 0,6 0,1 5 3 21 11 ESE 1,8 1,2
11.12.2017 20:00:00 0,5 0,0 10 5 21 11 E 2,8 1,4
11.12.2017 19:00:00 0,7 -0,3 8 5 21 11 ENE 2,6 0,3
11.12.2017 18:00:00 1,0 -0,1 9 5 22 12 NE 11 0,0
11.12.2017 17:00:00 0,8 -0,5 12 7 22 12 NE 12 0,0
11.12.2017 16:00:00 0,7 -0,9 9 5 21 11 NE 17 0,0
11.12.2017 15:00:00 0,7 -1,2 9 5 21 11 NE 20 0,0
11.12.2017 14:00:00 0,7 -1,3 9 5 18 10 NE 20 0,0
11.12.2017 13:00:00 0,8 -1,4 4 2 18 10 NNE 21 0,0
11.12.2017 12:00:00 0,6 -1,4 8 5 25 14 NE 18 0,0
11.12.2017 11:00:00 0,6 -1,4 9 5 25 14 NE 19 0,0
11.12.2017 10:00:00 0,3 -1,6 13 7 24 13 NE 23 0,0
11.12.2017 09:00:00 0,1 -1,3 5 3 22 12 NNE 20 0,0
11.12.2017 08:00:00 -0,2 -1,4 5 3 22 12 NNE 18 0,0
11.12.2017 07:00:00 -0,4 -1,2 9 5 22 12 NE 6 0,2
11.12.2017 06:00:00 -0,3 -1,8 8 4 18 10 NE 2,7 0,1
11.12.2017 05:00:00 0,3 -2,8 9 5 19 11 ENE 14 0,0
11.12.2017 04:00:00 0,5 -2,7 9 5 19 11 ENE 36 0,0
11.12.2017 03:00:00 0,5 -2,4 10 6 17 9 ENE 36 0,0
11.12.2017 02:00:00 0,7 -2,2 9 5 14 8 ENE 36 0,0
11.12.2017 01:00:00 0,8 -2,0 6 3 18 10 E 32 0,0
11.12.2017 00:00:00 0,7 -1,6 5 3 26 14 E 18 0,0
10.12.2017 23:00:00 1,2 -1,1 13 7 26 14 SE 6 0,0
10.12.2017 22:00:00 1,3 -1,8 11 6 29 16 SE 29 0,1
10.12.2017 21:00:00 1,4 -1,2 16 8 35 19 SE 9 0,1
10.12.2017 20:00:00 1,2 -1,3 13 7 35 19 SE 9 0,0
10.12.2017 19:00:00 1,4 -2,0 11 6 29 15 SE 50 0,0
10.12.2017 18:00:00 1,2 -3,2 10 5 29 15 SSE 50 0,0
10.12.2017 17:00:00 1,7 -2,0 13 7 25 13 SSE 46 0,0
10.12.2017 16:00:00 1,8 -2,8 10 6 30 16 SSE 38 0,0
10.12.2017 15:00:00 2,0 -1,5 13 7 30 16 S 27 0,1
10.12.2017 14:00:00 1,9 -0,8 8 4 28 15 SSW 21 0,0
10.12.2017 13:00:00 2,4 -1,4 11 6 32 18 SW 36 0,0
10.12.2017 12:00:00 2,1 -0,6 10 5 34 18 SSW 23 0,0
10.12.2017 11:00:00 1,8 0,4 14 8 34 18 SW 11 0,1
10.12.2017 10:00:00 2,1 0,5 12 6 34 18 SSW 18 0,1
10.12.2017 09:00:00 2,2 0,4 11 6 34 19 SW 12 0,0
10.12.2017 08:00:00 2,4 0,1 16 9 35 19 SW 28 0,0
10.12.2017 07:00:00 1,9 0,5 16 8 35 19 WSW 29 0,0
10.12.2017 06:00:00 1,5 0,3 16 8 34 19 WSW 11 0,1
10.12.2017 05:00:00 1,8 0,4 16 8 34 19 WSW 15 0,0
10.12.2017 04:00:00 1,9 -0,3 13 7 36 20 WSW 50 0,0
10.12.2017 03:00:00 - - - - - - - - -
10.12.2017 02:00:00 2,4 0,0 18 10 37 20 WSW 41 0,0
10.12.2017 01:00:00 2,3 -0,3 16 8 47 25 WSW 43 0,0
10.12.2017 00:00:00 2,7 -0,3 18 10 47 25 WSW 37 0,0
09.12.2017 23:00:00 2,7 -0,3 19 11 45 24 WSW 33 0,0
09.12.2017 22:00:00 2,5 -0,8 19 11 45 24 WSW 42 0,0
09.12.2017 21:00:00 3,0 -1,0 24 13 43 23 W 30 0,0
09.12.2017 20:00:00 3,2 -0,8 21 11 40 22 W 25 0,0
09.12.2017 19:00:00 3,5 -0,5 20 11 37 20 WSW 21 0,0
09.12.2017 18:00:00 3,4 -1,4 15 8 38 20 W 28 0,0

tt = Température de l'air
td = dewpoint
ff = Vitesse du vent
fx = gusts
dd = Direction du vent
vv = visibility
rr = Quantités de précipitations

stations d'obs. à proximité